Time;durP1;ratioP1;P1;durP2;ratioP2;P2;SDS_P1;SDS_P2;PMS_P1;PMS_P2;Temp;Humidity;BMP_temperature;BMP_pressure;BME280_temperature;BME280_humidity;BME280_pressure;Samples;Min_cycle;Max_cycle;Signal;HPM_P1;HPM_P2
2023/01/13 00:01:43;;;;;;;0.10;0.10;;;;;;;-145.06;100.00;53872.13;10225820;28;20036;-77
2023/01/13 00:06:44;;;;;;;0.10;0.10;;;;;;;-145.06;100.00;53888.34;10234623;29;20391;-77
2023/01/13 00:11:44;;;;;;;0.10;0.10;;;;;;;-145.06;100.00;53880.22;10214425;29;20480;-77
2023/01/13 00:16:44;;;;;;;0.10;0.10;;;;;;;-145.06;100.00;53892.38;10213671;29;20079;-77
2023/01/13 00:21:44;;;;;;;0.00;0.00;;;;;;;-145.06;100.00;53843.78;10210573;29;20023;-77
2023/01/13 00:26:45;;;;;;;0.10;0.10;;;;;;;-145.06;100.00;53868.09;10219354;28;20024;-77
2023/01/13 00:31:47;;;;;;;0.05;0.05;;;;;;;-145.06;100.00;53864.03;10243905;29;20054;-77
2023/01/13 00:36:47;;;;;;;0.10;0.10;;;;;;;-145.06;100.00;53896.44;10243097;28;20435;-77
2023/01/13 00:47:06;;;;;;;0.10;0.10;;;;;;;-145.06;100.00;53862.00;10231197;29;20063;-77
2023/01/13 00:52:07;;;;;;;0.10;0.10;;;;;;;-145.06;100.00;53870.09;10225784;28;20031;-77
2023/01/13 00:57:07;;;;;;;0.00;0.00;;;;;;;-145.06;100.00;53880.22;10218306;29;20502;-77
2023/01/13 01:02:07;;;;;;;0.10;0.10;;;;;;;-145.06;100.00;53868.09;10214901;29;20698;-77
2023/01/13 01:07:08;;;;;;;0.00;0.00;;;;;;;-145.06;100.00;53882.25;10216354;28;20036;-77
2023/01/13 01:12:08;;;;;;;0.00;0.00;;;;;;;-145.06;100.00;53888.34;10225597;29;20028;-77
2023/01/13 01:17:08;;;;;;;0.05;0.05;;;;;;;-145.06;100.00;53892.38;10232195;29;20099;-77
2023/01/13 01:22:09;;;;;;;0.10;0.10;;;;;;;-145.06;100.00;53888.34;10213411;29;20055;-77
2023/01/13 01:27:09;;;;;;;0.07;0.07;;;;;;;-145.06;100.00;53876.19;10213354;29;20106;-77
2023/01/13 01:32:09;;;;;;;0.10;0.10;;;;;;;-145.06;100.00;53910.63;10213230;29;20027;-77
2023/01/13 01:37:10;;;;;;;0.10;0.10;;;;;;;-145.06;100.00;53904.53;10234633;28;20031;-77
2023/01/13 01:47:34;;;;;;;0.00;0.00;;;;;;;-145.06;100.00;53882.25;10246680;28;20043;-77
2023/01/13 01:52:39;;;;;;;0.10;0.10;;;;;;;-145.06;100.00;53874.16;10240796;29;20031;-77
2023/01/13 01:57:53;;;;;;;0.00;0.00;;;;;;;-145.06;100.00;53880.22;10211483;29;20020;-77
2023/01/13 02:02:56;;;;;;;0.10;0.10;;;;;;;-145.06;100.00;53853.91;10249338;29;20433;-77
2023/01/13 02:07:58;;;;;;;0.10;0.10;;;;;;;-145.06;100.00;53896.44;10232382;28;20031;-77
2023/01/13 02:13:03;;;;;;;0.00;0.00;;;;;;;-145.06;100.00;53880.22;10216541;29;20024;-77
2023/01/13 02:18:30;;;;;;;0.10;0.10;;;;;;;-145.06;100.00;53898.47;10193798;29;20364;-77
2023/01/13 02:35:48;;;;;;;0.10;0.10;;;;;;;-145.06;100.00;53896.44;10224476;28;20130;-77
2023/01/13 02:46:38;;;;;;;0.00;0.00;;;;;;;-145.06;100.00;53880.22;10247368;29;20035;-77
2023/01/13 02:51:40;;;;;;;0.10;0.10;;;;;;;-145.06;100.00;53896.44;10231309;29;20031;-77
2023/01/13 02:56:46;;;;;;;0.00;0.00;;;;;;;-145.06;100.00;53900.50;10247971;29;20015;-77
2023/01/13 03:01:48;;;;;;;0.00;0.00;;;;;;;-145.06;100.00;53882.25;10231059;29;20113;-77
2023/01/13 03:07:30;;;;;;;0.00;0.00;;;;;;;-145.06;100.00;53896.44;10246873;28;20058;-77
2023/01/13 03:12:55;;;;;;;0.00;0.00;;;;;;;-145.06;100.00;53874.16;10230581;29;20426;-77
2023/01/13 03:18:13;;;;;;;0.10;0.10;;;;;;;-145.06;100.00;53890.38;10238335;28;20031;-77
2023/01/13 03:23:33;;;;;;;0.00;0.00;;;;;;;-145.06;100.00;53876.19;10247846;29;20027;-77
2023/01/13 03:28:43;;;;;;;0.00;0.00;;;;;;;-145.06;100.00;53932.88;10247063;29;20434;-77
2023/01/13 03:33:50;;;;;;;0.00;0.00;;;;;;;-145.06;100.00;53920.75;10247484;29;20019;-77
2023/01/13 03:38:55;;;;;;;0.00;0.00;;;;;;;-145.06;100.00;53892.38;10238000;28;20387;-77
2023/01/13 03:44:22;;;;;;;0.00;0.00;;;;;;;-145.06;100.00;53878.22;10219875;29;20093;-77
2023/01/13 03:49:28;;;;;;;0.10;0.10;;;;;;;-145.06;100.00;53882.25;10243550;23;20048;-79
2023/01/13 03:54:32;;;;;;;0.10;0.10;;;;;;;-145.06;100.00;53868.09;10221589;29;20111;-81
2023/01/13 03:59:38;;;;;;;0.10;0.10;;;;;;;-145.06;100.00;53853.91;10220682;29;20490;-81
2023/01/13 04:04:55;;;;;;;0.00;0.00;;;;;;;-145.06;100.00;53902.50;10220712;29;20034;-79
2023/01/13 04:09:57;;;;;;;0.10;0.10;;;;;;;-145.06;100.00;53868.09;10220770;29;20024;-79
2023/01/13 04:14:58;;;;;;;0.10;0.10;;;;;;;-145.06;100.00;53874.16;10202972;29;20027;-80
2023/01/13 04:19:58;;;;;;;0.00;0.00;;;;;;;-145.06;100.00;53853.91;10221327;29;20024;-80
2023/01/13 04:24:58;;;;;;;0.00;0.00;;;;;;;-145.06;100.00;53878.22;10204163;29;20071;-80
2023/01/13 04:29:59;;;;;;;0.00;0.00;;;;;;;-145.06;100.00;53884.28;10209883;29;20028;-81
2023/01/13 04:34:59;;;;;;;0.00;0.00;;;;;;;-145.06;100.00;53872.13;10211295;29;20267;-79
2023/01/13 04:39:59;;;;;;;0.00;0.00;;;;;;;-145.06;100.00;53902.50;10228538;29;20033;-79
2023/01/13 04:44:59;;;;;;;0.00;0.00;;;;;;;-145.06;100.00;53914.66;10209856;29;20124;-80
2023/01/13 04:50:00;;;;;;;0.00;0.00;;;;;;;-145.06;100.00;53868.09;10210349;29;20082;-80
2023/01/13 04:55:00;;;;;;;0.00;0.00;;;;;;;-145.06;100.00;53900.50;10227771;29;20274;-78
2023/01/13 05:00:00;;;;;;;0.00;0.00;;;;;;;-145.06;100.00;53880.22;10208875;29;20036;-79
2023/01/13 05:05:01;;;;;;;0.00;0.00;;;;;;;-145.06;100.00;53862.00;10225034;29;20058;-80
2023/01/13 05:10:02;;;;;;;0.03;0.03;;;;;;;-145.06;100.00;53872.13;10226462;29;20734;-81
2023/01/13 05:20:22;;;;;;;0.00;0.00;;;;;;;-145.06;100.00;53862.00;10225891;29;20039;-80
2023/01/13 05:25:26;;;;;;;0.10;0.10;;;;;;;-145.06;100.00;53896.44;10226258;29;20035;-81
2023/01/13 05:30:30;;;;;;;0.03;0.03;;;;;;;-145.06;100.00;53894.41;10225112;29;20044;-80
2023/01/13 05:35:31;;;;;;;0.00;0.00;;;;;;;-145.06;100.00;53878.22;10208642;29;20063;-78
2023/01/13 05:45:59;;;;;;;0.00;0.00;;;;;;;-145.06;100.00;53862.00;10225231;29;20059;-80
2023/01/13 05:51:01;;;;;;;0.00;0.00;;;;;;;-145.06;100.00;53882.25;10208043;29;20465;-81
2023/01/13 05:56:05;;;;;;;0.10;0.10;;;;;;;-145.06;100.00;53902.50;10226019;29;20027;-80
2023/01/13 06:01:07;;;;;;;0.00;0.00;;;;;;;-145.06;100.00;53864.03;10223978;29;20410;-79
2023/01/13 06:06:08;;;;;;;0.00;0.00;;;;;;;-145.06;100.00;53876.19;10225057;29;20038;-80
2023/01/13 06:11:08;;;;;;;0.00;0.00;;;;;;;-145.06;100.00;53880.22;10206770;29;20042;-81
2023/01/13 06:16:09;;;;;;;0.00;0.00;;;;;;;-145.06;100.00;53882.25;10224814;29;20050;-79
2023/01/13 06:21:09;;;;;;;0.00;0.00;;;;;;;-145.06;100.00;53851.88;10223846;29;20038;-80
2023/01/13 06:26:19;;;;;;;0.00;0.00;;;;;;;-145.06;100.00;53910.63;10223012;29;20063;-78
2023/01/13 06:31:20;;;;;;;0.00;0.00;;;;;;;-145.06;100.00;53882.25;10223246;29;20487;-79
2023/01/13 06:36:28;;;;;;;0.00;0.00;;;;;;;-145.06;100.00;53892.38;10222642;29;20015;-80
2023/01/13 06:46:53;;;;;;;0.00;0.00;;;;;;;-145.06;100.00;53900.50;10222469;29;20044;-81
2023/01/13 06:51:53;;;;;;;0.00;0.00;;;;;;;-145.06;100.00;53874.16;10222651;29;20027;-79
2023/01/13 06:56:53;;;;;;;0.00;0.00;;;;;;;-145.06;100.00;53872.13;10221796;29;20566;-80
2023/01/13 07:01:53;;;;;;;0.00;0.00;;;;;;;-145.06;100.00;53888.34;10222287;29;20031;-79
2023/01/13 07:06:54;;;;;;;0.00;0.00;;;;;;;-145.06;100.00;53835.69;10222620;29;20294;-78
2023/01/13 07:11:54;;;;;;;0.00;0.00;;;;;;;-145.06;100.00;53884.28;10221273;29;20419;-79
2023/01/13 07:16:54;;;;;;;0.00;0.00;;;;;;;-145.06;100.00;53847.84;10222613;29;20648;-79
2023/01/13 07:21:55;;;;;;;0.00;0.00;;;;;;;-145.06;100.00;53924.78;10220160;29;20475;-78
2023/01/13 07:26:55;;;;;;;0.00;0.00;;;;;;;-145.06;100.00;53894.41;10220982;29;20031;-78
2023/01/13 07:31:55;;;;;;;0.00;0.00;;;;;;;-145.06;100.00;53876.19;10221930;29;20034;-79
2023/01/13 07:36:55;;;;;;;0.08;0.08;;;;;;;-145.06;100.00;53862.00;10222822;29;20046;-79
2023/01/13 07:47:15;;;;;;;0.10;0.10;;;;;;;-145.06;100.00;53845.81;10220454;29;20039;-80
2023/01/13 07:52:15;;;;;;;0.00;0.00;;;;;;;-145.06;100.00;53880.22;10220446;29;20103;-80
2023/01/13 07:57:15;;;;;;;0.10;0.10;;;;;;;-145.06;100.00;53890.38;10219201;29;20027;-80
2023/01/13 08:02:16;;;;;;;0.10;0.10;;;;;;;-145.06;100.00;53880.22;10221158;29;20031;-80
2023/01/13 08:07:16;;;;;;;0.00;0.00;;;;;;;-145.06;100.00;53868.09;10227214;29;20351;-80
2023/01/13 08:17:36;;;;;;;0.00;0.00;;;;;;;-145.06;100.00;53880.22;10228575;29;20462;-81
2023/01/13 08:22:37;;;;;;;0.10;0.10;;;;;;;-145.06;100.00;53851.88;10210653;29;20060;-80
2023/01/13 08:27:37;;;;;;;0.10;0.10;;;;;;;-145.06;100.00;53894.41;10210744;29;20019;-79
2023/01/13 08:32:37;;;;;;;0.00;0.00;;;;;;;-145.06;100.00;53906.56;10210838;29;20035;-79
2023/01/13 08:37:38;;;;;;;0.00;0.00;;;;;;;-145.06;100.00;53886.31;10226255;29;20024;-80
2023/01/13 08:42:38;;;;;;;0.10;0.10;;;;;;;-145.06;100.00;53849.84;10226641;29;20030;-80
2023/01/13 08:47:39;;;;;;;0.10;0.10;;;;;;;-145.06;100.00;53843.78;10227780;29;20403;-81
2023/01/13 08:52:39;;;;;;;0.00;0.00;;;;;;;-145.06;100.00;53898.47;10225018;29;20034;-81
2023/01/13 08:57:40;;;;;;;0.00;0.00;;;;;;;-145.06;100.00;53888.34;10225016;29;20135;-81
2023/01/13 09:02:40;;;;;;;0.10;0.10;;;;;;;-145.06;100.00;53876.19;10226332;29;20096;-81
2023/01/13 09:07:40;;;;;;;0.00;0.00;;;;;;;-145.06;100.00;53815.44;10209076;29;20028;-81
2023/01/13 09:18:01;;;;;;;0.00;0.00;;;;;;;-145.06;100.00;53845.81;10226586;29;20047;-80
2023/01/13 09:23:01;;;;;;;0.00;0.00;;;;;;;-145.06;100.00;53866.06;10226515;29;20054;-81
2023/01/13 09:28:03;;;;;;;0.10;0.10;;;;;;;-145.06;100.00;53874.16;10209284;29;20031;-80
2023/01/13 09:38:23;;;;;;;0.10;0.10;;;;;;;-145.06;100.00;53868.09;10226885;29;20035;-78
2023/01/13 09:43:53;;;;;;;0.05;0.05;;;;;;;-145.06;100.00;53868.09;10208219;29;20261;-81
2023/01/13 09:48:56;;;;;;;0.10;0.10;;;;;;;-145.06;100.00;53853.91;10218888;23;20498;-77
2023/01/13 09:54:02;;;;;;;0.00;0.00;;;;;;;-145.06;100.00;53851.88;10191713;29;20047;-76
2023/01/13 09:59:02;;;;;;;0.10;0.10;;;;;;;-145.06;100.00;53843.78;10179457;29;20034;-77
2023/01/13 10:04:09;;;;;;;0.10;0.10;;;;;;;-145.06;100.00;53851.88;10187342;29;20513;-77
2023/01/13 10:09:48;;;;;;;0.10;0.10;;;;;;;-145.06;100.00;53853.91;10181266;29;20027;-77
2023/01/13 10:14:53;;;;;;;0.00;0.00;;;;;;;-145.06;100.00;53845.81;10198297;29;20059;-77
2023/01/13 10:20:07;;;;;;;0.10;0.10;;;;;;;-145.06;100.00;53839.72;10175421;29;20493;-77
2023/01/13 10:25:26;;;;;;;0.10;0.10;;;;;;;-145.06;100.00;53835.69;10198962;29;20055;-77
2023/01/13 10:30:33;;;;;;;0.10;0.10;;;;;;;-145.06;100.00;53876.19;10199050;29;20088;-77
2023/01/13 10:36:14;;;;;;;0.10;0.10;;;;;;;-145.06;100.00;53835.69;10159254;29;20079;-77
2023/01/13 10:41:14;;;;;;;0.10;0.10;;;;;;;-145.06;100.00;53870.09;10200453;29;20127;-77
2023/01/13 10:46:15;;;;;;;0.00;0.00;;;;;;;-145.06;100.00;53839.72;10190249;29;20485;-77
2023/01/13 10:51:21;;;;;;;0.00;0.00;;;;;;;-145.06;100.00;53835.69;10182985;29;20067;-77
2023/01/13 10:56:24;;;;;;;0.10;0.10;;;;;;;-145.06;100.00;53831.63;10185230;29;20027;-77
2023/01/13 11:01:26;;;;;;;0.10;0.10;;;;;;;-145.06;100.00;53847.84;10201048;29;20056;-77
2023/01/13 11:06:28;;;;;;;0.10;0.10;;;;;;;-145.06;100.00;53819.47;10191553;29;20036;-77
2023/01/13 11:11:44;;;;;;;0.08;0.08;;;;;;;-145.06;100.00;53793.16;10202213;29;20039;-77
2023/01/13 11:16:49;;;;;;;0.10;0.10;;;;;;;-145.06;100.00;53839.72;10182424;29;20055;-77
2023/01/13 11:21:56;;;;;;;0.00;0.00;;;;;;;-145.06;100.00;53837.72;10185393;29;20035;-77
2023/01/13 11:27:02;;;;;;;0.10;0.10;;;;;;;-145.06;100.00;53831.63;10191175;29;20055;-77
2023/01/13 11:32:15;;;;;;;0.10;0.10;;;;;;;-145.06;100.00;53835.69;10196613;29;20431;-77
2023/01/13 11:37:25;;;;;;;0.00;0.00;;;;;;;-145.06;100.00;53872.13;10195162;29;20547;-77
2023/01/13 11:42:48;;;;;;;0.00;0.00;;;;;;;-145.06;100.00;53886.31;10209682;29;20026;-77
2023/01/13 11:47:51;;;;;;;0.10;0.10;;;;;;;-145.06;100.00;53855.94;10191013;29;20075;-77
2023/01/13 11:53:24;;;;;;;0.00;0.00;;;;;;;-145.06;100.00;53835.69;10169504;29;20024;-77
2023/01/13 11:58:39;;;;;;;0.05;0.05;;;;;;;-145.06;100.00;53817.47;10155040;29;20024;-77
2023/01/13 12:04:06;;;;;;;0.10;0.10;;;;;;;-145.06;100.00;53876.19;10177183;29;20068;-77
2023/01/13 12:09:38;;;;;;;0.00;0.00;;;;;;;-145.06;100.00;53829.59;10178148;29;20030;-77
2023/01/13 12:15:25;;;;;;;0.10;0.10;;;;;;;-145.06;100.00;53859.97;10192227;29;20538;-77
2023/01/13 12:20:44;;;;;;;0.05;0.05;;;;;;;-145.06;100.00;53859.97;10207518;29;20024;-77
2023/01/13 12:25:51;;;;;;;0.10;0.10;;;;;;;-145.06;100.00;53831.63;10208788;29;20074;-77
2023/01/13 12:30:59;;;;;;;0.00;0.00;;;;;;;-145.06;100.00;53831.63;10204911;29;20112;-76
2023/01/13 12:36:26;;;;;;;0.00;0.00;;;;;;;-145.06;100.00;53872.13;10165974;29;20024;-77
2023/01/13 12:47:34;;;;;;;0.00;0.00;;;;;;;-145.06;100.00;53892.38;10207720;29;20020;-77
2023/01/13 12:52:47;;;;;;;;;;;;;;;-145.06;100.00;53872.13;10190117;29;20027;-77
2023/01/13 12:58:13;;;;;;;0.00;0.00;;;;;;;-145.06;100.00;53831.63;10196000;29;20390;-77
2023/01/13 13:03:25;;;;;;;0.10;0.10;;;;;;;-145.06;100.00;53866.06;10176359;29;20034;-77
2023/01/13 13:09:00;;;;;;;0.10;0.10;;;;;;;-145.06;100.00;53855.94;10205845;29;20028;-77
2023/01/13 13:14:05;;;;;;;;;;;;;;;-145.06;100.00;53870.09;10212089;29;20486;-77
2023/01/13 13:19:17;;;;;;;0.00;0.00;;;;;;;-145.06;100.00;53853.91;10212841;29;20407;-76
2023/01/13 13:24:17;;;;;;;0.00;0.00;;;;;;;-145.06;100.00;53833.66;10195949;29;20026;-77
2023/01/13 13:29:23;;;;;;;0.00;0.00;;;;;;;-145.06;100.00;53868.09;10198139;29;20020;-77
2023/01/13 13:34:47;;;;;;;0.00;0.00;;;;;;;-145.06;100.00;53866.06;10188775;29;20399;-77
2023/01/13 13:50:46;;;;;;;0.10;0.10;;;;;;;-145.06;100.00;53855.94;10175410;29;20075;-77
2023/01/13 13:55:56;;;;;;;0.00;0.00;;;;;;;-145.06;100.00;53825.56;10158446;29;20491;-77
2023/01/13 14:00:57;;;;;;;0.00;0.00;;;;;;;-145.06;100.00;53835.69;10186950;29;20346;-77
2023/01/13 14:06:00;;;;;;;0.00;0.00;;;;;;;-145.06;100.00;53886.31;10168071;29;20099;-77
2023/01/13 14:11:01;;;;;;;0.10;0.10;;;;;;;-145.06;100.00;53855.94;10172702;29;20032;-77
2023/01/13 14:16:09;;;;;;;0.10;0.10;;;;;;;-145.06;100.00;53807.31;10191879;29;20027;-77
2023/01/13 14:21:23;;;;;;;0.00;0.00;;;;;;;-145.06;100.00;53831.63;10173633;29;20591;-77
2023/01/13 14:26:26;;;;;;;0.10;0.10;;;;;;;-145.06;100.00;53882.25;10197696;29;20424;-77
2023/01/13 14:31:27;;;;;;;0.03;0.03;;;;;;;-145.06;100.00;53878.22;10190454;29;20571;-77
2023/01/13 14:36:30;;;;;;;0.00;0.00;;;;;;;-145.06;100.00;53819.47;10193302;29;20129;-77
2023/01/13 14:41:53;;;;;;;0.10;0.10;;;;;;;-145.06;100.00;53831.63;10189819;29;20055;-77
2023/01/13 14:46:56;;;;;;;0.10;0.10;;;;;;;-145.06;100.00;53855.94;10209575;29;20048;-77
2023/01/13 14:52:11;;;;;;;0.00;0.00;;;;;;;-145.06;100.00;53894.41;10209705;29;20067;-77
2023/01/13 14:57:14;;;;;;;0.00;0.00;;;;;;;-145.06;100.00;53849.84;10204537;29;20015;-77
2023/01/13 15:02:34;;;;;;;0.10;0.10;;;;;;;-145.06;100.00;53882.25;10176009;29;20416;-77
2023/01/13 15:07:36;;;;;;;0.00;0.00;;;;;;;-145.06;100.00;53843.78;10193387;29;20063;-77
2023/01/13 15:12:39;;;;;;;0.10;0.10;;;;;;;-145.06;100.00;53868.09;10173291;29;20024;-77
2023/01/13 15:17:40;;;;;;;0.10;0.10;;;;;;;-145.06;100.00;53833.66;10205750;29;20038;-77
2023/01/13 15:22:40;;;;;;;0.00;0.00;;;;;;;-145.06;100.00;53876.19;10208548;29;20028;-77
2023/01/13 15:27:43;;;;;;;0.10;0.10;;;;;;;-145.06;100.00;53886.31;10194739;29;20032;-77
2023/01/13 15:32:44;;;;;;;0.00;0.00;;;;;;;-145.06;100.00;53829.59;10207970;29;20268;-77
2023/01/13 15:37:46;;;;;;;0.00;0.00;;;;;;;-145.06;100.00;53855.94;10201417;29;20020;-77
2023/01/13 15:48:07;;;;;;;0.00;0.00;;;;;;;-145.06;100.00;53870.09;10212240;23;20070;-90
2023/01/13 15:53:12;;;;;;;0.00;0.00;;;;;;;-145.06;100.00;53882.25;10245851;28;20031;-91
2023/01/13 15:58:13;;;;;;;0.03;0.03;;;;;;;-145.06;100.00;53870.09;10218010;29;20032;-90
2023/01/13 16:03:15;;;;;;;0.10;0.10;;;;;;;-145.06;100.00;53872.13;10216844;29;20035;-90
2023/01/13 16:08:21;;;;;;;0.10;0.10;;;;;;;-145.06;100.00;53857.97;10208045;29;20016;-90
2023/01/13 16:13:21;;;;;;;0.00;0.00;;;;;;;-145.06;100.00;53872.13;10200354;29;20115;-89
2023/01/13 16:18:23;;;;;;;0.00;0.00;;;;;;;-145.06;100.00;53876.19;10192270;29;20162;-90
2023/01/13 16:23:23;;;;;;;0.00;0.00;;;;;;;-145.06;100.00;53847.84;10207295;29;20391;-90
2023/01/13 16:28:27;;;;;;;0.00;0.00;;;;;;;-145.06;100.00;53831.63;10223363;29;20137;-90
2023/01/13 16:33:27;;;;;;;0.00;0.00;;;;;;;-145.06;100.00;53853.91;10224745;29;20042;-90
2023/01/13 16:38:27;;;;;;;0.00;0.00;;;;;;;-145.06;100.00;53855.94;10223656;29;20110;-90
2023/01/13 16:43:27;;;;;;;0.08;0.08;;;;;;;-145.06;100.00;53862.00;10226677;29;20046;-90
2023/01/13 16:48:28;;;;;;;0.03;0.03;;;;;;;-145.06;100.00;53872.13;10224365;29;20066;-90
2023/01/13 16:53:28;;;;;;;0.00;0.00;;;;;;;-145.06;100.00;53819.47;10224254;29;20032;-90
2023/01/13 16:58:28;;;;;;;0.00;0.00;;;;;;;-145.06;100.00;53878.22;10240707;29;20023;-91
2023/01/13 17:03:33;;;;;;;0.00;0.00;;;;;;;-145.06;100.00;53853.91;10220864;29;20039;-90
2023/01/13 17:08:33;;;;;;;0.10;0.10;;;;;;;-145.06;100.00;53839.72;10218829;29;20054;-90
2023/01/13 17:13:33;;;;;;;0.10;0.10;;;;;;;-145.06;100.00;53880.22;10221536;29;20552;-90
2023/01/13 17:18:33;;;;;;;0.00;0.00;;;;;;;-145.06;100.00;53882.25;10219038;29;20023;-90
2023/01/13 17:23:34;;;;;;;0.10;0.10;;;;;;;-145.06;100.00;53884.28;10221911;29;20023;-90
2023/01/13 17:28:34;;;;;;;0.00;0.00;;;;;;;-145.06;100.00;53888.34;10221783;29;20412;-90
2023/01/13 17:33:36;;;;;;;0.00;0.00;;;;;;;-145.06;100.00;53827.59;10219685;29;20411;-90
2023/01/13 17:38:36;;;;;;;0.10;0.10;;;;;;;-145.06;100.00;53866.06;10220433;29;20275;-91
2023/01/13 17:43:36;;;;;;;0.00;0.00;;;;;;;-145.06;100.00;53855.94;10219398;29;20027;-90
2023/01/13 17:48:37;;;;;;;0.10;0.10;;;;;;;-145.06;100.00;53855.94;10235694;29;20047;-90
2023/01/13 17:53:40;;;;;;;0.00;0.00;;;;;;;-145.06;100.00;53890.38;10234403;29;20041;-90
2023/01/13 17:58:40;;;;;;;0.00;0.00;;;;;;;-145.06;100.00;53847.84;10219907;29;20020;-90
2023/01/13 18:03:41;;;;;;;0.00;0.00;;;;;;;-145.06;100.00;53878.22;10215896;29;20027;-89
2023/01/13 18:08:41;;;;;;;0.00;0.00;;;;;;;-145.06;100.00;53839.72;10221379;29;20027;-90
2023/01/13 18:13:42;;;;;;;0.00;0.00;;;;;;;-145.06;100.00;53884.28;10217667;29;20085;-90
2023/01/13 18:18:44;;;;;;;0.10;0.10;;;;;;;-145.06;100.00;53855.94;10217047;29;20024;-89
2023/01/13 18:27:17;;;;;;;0.10;0.10;;;;;;;-145.06;100.00;53853.91;10220548;29;20023;-88
2023/01/13 18:29:14;;;;;;;0.00;0.00;;;;;;;-145.06;100.00;53870.09;10233231;29;20016;-89
2023/01/13 18:34:14;;;;;;;0.00;0.00;;;;;;;-145.06;100.00;53880.22;10219285;29;20495;-88
2023/01/13 18:39:15;;;;;;;0.00;0.00;;;;;;;-145.06;100.00;53853.91;10224211;29;20467;-89
2023/01/13 18:44:15;;;;;;;0.10;0.10;;;;;;;-145.06;100.00;53892.38;10215474;29;20027;-89
2023/01/13 18:49:16;;;;;;;0.00;0.00;;;;;;;-145.06;100.00;53837.72;10213026;29;20024;-90
2023/01/13 18:54:17;;;;;;;0.00;0.00;;;;;;;-145.06;100.00;53870.09;10222652;29;20086;-90
2023/01/13 18:59:18;;;;;;;0.00;0.00;;;;;;;-145.06;100.00;53884.28;10216275;29;20065;-91
2023/01/13 19:04:18;;;;;;;0.10;0.10;;;;;;;-145.06;100.00;53882.25;10211002;29;20045;-90
2023/01/13 19:09:23;;;;;;;0.00;0.00;;;;;;;-145.06;100.00;53876.19;10218429;29;20315;-91
2023/01/13 19:14:33;;;;;;;0.10;0.10;;;;;;;-145.06;100.00;53862.00;10218516;29;20031;-90
2023/01/13 19:19:41;;;;;;;0.00;0.00;;;;;;;-145.06;100.00;53872.13;10219673;29;20024;-90
2023/01/13 19:24:41;;;;;;;0.00;0.00;;;;;;;-145.06;100.00;53876.19;10218230;29;20023;-90
2023/01/13 19:29:43;;;;;;;0.00;0.00;;;;;;;-145.06;100.00;53904.53;10217005;29;20023;-89
2023/01/13 19:34:43;;;;;;;0.00;0.00;;;;;;;-145.06;100.00;53876.19;10215795;29;20024;-90
2023/01/13 19:39:44;;;;;;;0.00;0.00;;;;;;;-145.06;100.00;53880.22;10216828;29;20106;-90
2023/01/13 19:50:06;;;;;;;0.00;0.00;;;;;;;-145.06;100.00;53841.75;10220117;29;20775;-91
2023/01/13 19:55:08;;;;;;;0.10;0.10;;;;;;;-145.06;100.00;53862.00;10213891;29;20016;-90
2023/01/13 20:00:10;;;;;;;0.00;0.00;;;;;;;-145.06;100.00;53851.88;10225090;28;20094;-91
2023/01/13 20:05:14;;;;;;;0.00;0.00;;;;;;;-145.06;100.00;53843.78;10227800;29;20019;-92
2023/01/13 20:10:15;;;;;;;0.05;0.05;;;;;;;-145.06;100.00;53900.50;10229052;29;20028;-92
2023/01/13 20:15:16;;;;;;;0.10;0.10;;;;;;;-145.06;100.00;53876.19;10231982;29;20086;-92
2023/01/13 20:20:17;;;;;;;0.00;0.00;;;;;;;-145.06;100.00;53872.13;10227434;29;20118;-91
2023/01/13 20:25:18;;;;;;;0.10;0.10;;;;;;;-145.06;100.00;53880.22;10228034;29;20137;-91
2023/01/13 20:30:18;;;;;;;0.10;0.10;;;;;;;-145.06;100.00;53872.13;10224124;28;20089;-91
2023/01/13 20:35:19;;;;;;;0.00;0.00;;;;;;;-145.06;100.00;53853.91;10227707;29;20023;-91
2023/01/13 20:40:19;;;;;;;0.00;0.00;;;;;;;-145.06;100.00;53847.84;10225911;29;20047;-91
2023/01/13 20:45:22;;;;;;;0.10;0.10;;;;;;;-145.06;100.00;53855.94;10219970;29;20035;-92
2023/01/13 20:50:22;;;;;;;0.08;0.08;;;;;;;-145.06;100.00;53835.69;10226004;29;20136;-92
2023/01/13 20:55:22;;;;;;;0.10;0.10;;;;;;;-145.06;100.00;53817.47;10229255;28;20500;-91
2023/01/13 21:00:23;;;;;;;0.00;0.00;;;;;;;-145.06;100.00;53823.53;10238462;29;20599;-91
2023/01/13 21:05:23;;;;;;;0.10;0.10;;;;;;;-145.06;100.00;53866.06;10231767;29;20054;-92
2023/01/13 21:10:24;;;;;;;0.03;0.03;;;;;;;-145.06;100.00;53868.09;10227935;28;20031;-91
2023/01/13 21:15:26;;;;;;;0.05;0.05;;;;;;;-145.06;100.00;53831.63;10224532;29;20111;-92
2023/01/13 21:20:29;;;;;;;0.10;0.10;;;;;;;-145.06;100.00;53894.41;10215472;29;20396;-91
2023/01/13 21:25:30;;;;;;;0.00;0.00;;;;;;;-145.06;100.00;53906.56;10235508;29;20022;-94
2023/01/13 21:30:32;;;;;;;0.00;0.00;;;;;;;-145.06;100.00;53884.28;10223522;29;20034;-91
2023/01/13 21:35:35;;;;;;;0.00;0.00;;;;;;;-145.06;100.00;53847.84;10231285;29;20019;-92
2023/01/13 21:40:36;;;;;;;0.00;0.00;;;;;;;-145.06;100.00;53851.88;10221249;29;20032;-91
2023/01/13 21:51:00;;;;;;;0.10;0.10;;;;;;;-145.06;100.00;53831.63;10248949;23;20120;-93
2023/01/13 21:56:00;;;;;;;0.10;0.10;;;;;;;-145.06;100.00;53864.03;10200178;29;20050;-92
2023/01/13 22:01:01;;;;;;;0.00;0.00;;;;;;;-145.06;100.00;53870.09;10163996;29;20043;-91
2023/01/13 22:06:01;;;;;;;0.00;0.00;;;;;;;-145.06;100.00;53831.63;10139790;29;20054;-92
2023/01/13 22:11:01;;;;;;;0.00;0.00;;;;;;;-145.06;100.00;53864.03;10137261;29;20027;-93
2023/01/13 22:16:03;;;;;;;0.00;0.00;;;;;;;-145.06;100.00;53914.66;10141381;29;20028;-92
2023/01/13 22:21:03;;;;;;;0.00;0.00;;;;;;;-145.06;100.00;53874.16;10129171;29;20264;-92
2023/01/13 22:26:05;;;;;;;0.10;0.10;;;;;;;-145.06;100.00;53888.34;10135514;29;20416;-92
2023/01/13 22:31:10;;;;;;;0.10;0.10;;;;;;;-145.06;100.00;53888.34;10141413;29;20092;-92
2023/01/13 22:36:11;;;;;;;0.10;0.10;;;;;;;-145.06;100.00;53872.13;10134345;29;20396;-92
2023/01/13 22:41:12;;;;;;;0.00;0.00;;;;;;;-145.06;100.00;53864.03;10138538;29;20511;-92
2023/01/13 22:46:12;;;;;;;0.00;0.00;;;;;;;-145.06;100.00;53936.94;10140542;29;20051;-91
2023/01/13 22:51:15;;;;;;;0.10;0.10;;;;;;;-145.06;100.00;53870.09;10143605;29;20367;-92
2023/01/13 22:56:19;;;;;;;0.00;0.00;;;;;;;-145.06;100.00;53859.97;10149485;29;20457;-92
2023/01/13 23:01:19;;;;;;;0.10;0.10;;;;;;;-145.06;100.00;53880.22;10157303;29;20035;-92
2023/01/13 23:06:22;;;;;;;0.00;0.00;;;;;;;-145.06;100.00;53900.50;10149106;29;20404;-92
2023/01/13 23:11:28;;;;;;;0.00;0.00;;;;;;;-145.06;100.00;53843.78;10127146;29;20409;-92
2023/01/13 23:16:29;;;;;;;0.10;0.10;;;;;;;-145.06;100.00;53831.63;10133158;29;20108;-92
2023/01/13 23:21:32;;;;;;;0.08;0.08;;;;;;;-145.06;100.00;53902.50;10146164;29;20028;-91
2023/01/13 23:26:33;;;;;;;0.00;0.00;;;;;;;-145.06;100.00;53857.97;10142222;29;20025;-92
2023/01/13 23:31:34;;;;;;;0.00;0.00;;;;;;;-145.06;100.00;53827.59;10137307;29;20386;-91
2023/01/13 23:36:39;;;;;;;0.00;0.00;;;;;;;-145.06;100.00;53839.72;10134743;29;20025;-91
2023/01/13 23:41:40;;;;;;;0.03;0.03;;;;;;;-145.06;100.00;53851.88;10137277;29;20035;-92
2023/01/13 23:46:40;;;;;;;0.00;0.00;;;;;;;-145.06;100.00;53849.84;10133826;29;20031;-92
2023/01/13 23:51:40;;;;;;;0.00;0.00;;;;;;;-145.06;100.00;53876.19;10137328;29;20024;-91
2023/01/13 23:56:41;;;;;;;0.00;0.00;;;;;;;-145.06;100.00;53878.22;10138953;29;20058;-92
